Alpine, Colorado
Current Conditions -  °F | °C
As of 9:10 PM on Friday 31 Oct 2014 (Local Time) from KRCV Reporting Station
Clear Clear  
Wind Chill: 33°   Ceiling: Unl
Heat Index: 40°   Visibility: 10mi
Dew Point: 21°   Wind: 12mph
Humidity: 47%   Direction: 260°W
Pressure: 30.28"   Gusts: NA
Location:  37.6617°N, 106.617°W
Report Text: KRCV 010310Z AUTO 26010KT 10SM CLR 04/M06 A3028 RMK AO2 T00441060
Loading
Personal Weather Stations






























Interactive Weather Map
Tropical Storm Tracking
New forecast layout! Learn more

10-Day Weather Forecast

Advertisements
Track Severe Weather on mobile